»·PEaware :: N5055J KPSP-KBUR

N5055J :: KPSP-KBUR

FLIGHT INFORMATION

Flight Status: Arrived
Operator: Privately registered:
United States
More flights under this callsign
Pilot: Scott M. (16181)
Aircraft: Unknown
(X-EF)
More flights by this aircraft type
Origin: KPSP Palm Springs Intl
United States
Destination: KBUR Bob Hope-Burbank
United States
More flights between these airports :: More routes between these airports
Route:
File this flight plan on PilotEdge
Remarks:
Altitude:
(Current/Filed)
8,500ft
Speed:
(Current/Filed)
100kts
Departed: 05-Nov-18 06:13 PM
Arrived: 05-Nov-18 07:42 PM
Distance/Time
Traveled:
95nm/1:29
Distance/Time
To Go:
Arrived

Flight Plot

Page will automatically refresh every two minutes.

Flight plan parsing failed; only flown route is shown


Map Options




Map Legend


Flown Route
Filed Route
Departure Airport
Arrival Airport
Navaid (VOR, NDB)
Fix

Horizontal Profiles

Position Reports

Time Latitude Longitude Heading Altitude Ground
Speed
05-Nov-18 18:03 33.821932 -116.497044 55 429ft 0kts
05-Nov-18 18:04 33.821932 -116.497044 55 429ft 0kts
05-Nov-18 18:05 33.821932 -116.497044 55 429ft 0kts
05-Nov-18 18:06 33.821932 -116.497044 55 429ft 0kts
05-Nov-18 18:07 33.821932 -116.497044 55 429ft 0kts
05-Nov-18 18:08 33.821932 -116.497044 55 429ft 0kts
05-Nov-18 18:09 33.821932 -116.497044 55 429ft 0kts
05-Nov-18 18:10 33.821932 -116.497044 55 429ft 0kts
05-Nov-18 18:11 33.821932 -116.497044 55 429ft 0kts
05-Nov-18 18:12 33.821932 -116.497044 55 429ft 0kts
05-Nov-18 18:13 33.822349 -116.497073 325 429ft 9kts
05-Nov-18 18:14 33.824695 -116.499385 268 429ft 7kts
05-Nov-18 18:15 33.824601 -116.499662 235 429ft 2kts
05-Nov-18 18:16 33.833411 -116.508452 327 876ft 72kts
05-Nov-18 18:17 33.849446 -116.522361 322 1996ft 73kts
05-Nov-18 18:18 33.864896 -116.539519 315 3018ft 75kts
05-Nov-18 18:19 33.876897 -116.559766 307 3813ft 76kts
05-Nov-18 18:20 33.887640 -116.580875 306 4628ft 75kts
05-Nov-18 18:21 33.897140 -116.602885 297 5377ft 78kts
05-Nov-18 18:22 33.902970 -116.627644 300 6024ft 75kts
05-Nov-18 18:23 33.908481 -116.651350 298 6492ft 73kts
05-Nov-18 18:24 33.914463 -116.674077 299 6933ft 69kts
05-Nov-18 18:25 33.919207 -116.696387 296 7261ft 68kts
05-Nov-18 18:26 33.923860 -116.718000 300 7576ft 65kts
05-Nov-18 18:27 33.931024 -116.737371 306 7870ft 62kts
05-Nov-18 18:28 33.939146 -116.755265 305 8149ft 61kts
05-Nov-18 18:29 33.947077 -116.773230 309 8398ft 61kts
05-Nov-18 18:30 33.954589 -116.791339 299 8545ft 59kts
05-Nov-18 18:31 33.964264 -116.807253 307 8549ft 59kts
05-Nov-18 18:32 33.974787 -116.822472 308 8489ft 56kts
05-Nov-18 18:33 33.984574 -116.837286 309 8491ft 57kts
05-Nov-18 18:34 33.994735 -116.851870 308 8509ft 57kts
05-Nov-18 18:35 34.004473 -116.867085 304 8565ft 59kts
05-Nov-18 18:36 34.014541 -116.883484 303 8607ft 63kts
05-Nov-18 18:37 34.025856 -116.901170 301 8578ft 65kts
05-Nov-18 18:38 34.036992 -116.920335 301 8485ft 68kts
05-Nov-18 18:39 34.046514 -116.938923 297 8496ft 63kts
05-Nov-18 18:40 34.055315 -116.956821 296 8537ft 61kts
05-Nov-18 18:41 34.064227 -116.974254 295 8565ft 61kts
05-Nov-18 18:42 34.073705 -116.992080 295 8563ft 63kts
05-Nov-18 18:43 34.081010 -117.010789 288 8579ft 61kts
05-Nov-18 18:44 34.086601 -117.029955 281 8605ft 59kts
05-Nov-18 18:45 34.091992 -117.049167 273 8582ft 59kts
05-Nov-18 18:46 34.096830 -117.068255 289 8572ft 60kts
05-Nov-18 18:47 34.101912 -117.087134 283 8550ft 60kts
05-Nov-18 18:48 34.106048 -117.107777 280 8562ft 63kts
05-Nov-18 18:49 34.109724 -117.128564 282 8594ft 65kts
05-Nov-18 18:50 34.112125 -117.150764 275 8546ft 68kts
05-Nov-18 18:51 34.114512 -117.173628 279 8498ft 67kts
05-Nov-18 18:52 34.118249 -117.195648 275 8491ft 66kts
05-Nov-18 18:53 34.119197 -117.217763 272 8492ft 65kts
05-Nov-18 18:54 34.121734 -117.239701 279 8483ft 66kts
05-Nov-18 18:55 34.124777 -117.261087 277 8542ft 61kts
05-Nov-18 18:56 34.127013 -117.282384 279 8532ft 66kts
05-Nov-18 18:57 34.130263 -117.305258 280 8553ft 69kts
05-Nov-18 18:58 34.133192 -117.328646 278 8550ft 71kts
05-Nov-18 18:59 34.135575 -117.352452 276 8540ft 73kts
05-Nov-18 19:00 34.137816 -117.376611 274 8555ft 68kts
05-Nov-18 19:01 34.139419 -117.400269 275 8559ft 69kts
05-Nov-18 19:02 34.140908 -117.423748 276 8521ft 76kts
05-Nov-18 19:03 34.143536 -117.447854 278 8604ft 62kts
05-Nov-18 19:04 34.143261 -117.470004 276 8600ft 70kts
05-Nov-18 19:05 34.145283 -117.493578 273 8537ft 70kts
05-Nov-18 19:06 34.145120 -117.516110 274 8534ft 66kts
05-Nov-18 19:07 34.145270 -117.538197 272 8579ft 64kts
05-Nov-18 19:08 34.145323 -117.561289 275 8490ft 71kts
05-Nov-18 19:09 34.146443 -117.585005 276 8428ft 69kts
05-Nov-18 19:10 34.146472 -117.608294 275 8222ft 69kts
05-Nov-18 19:11 34.145591 -117.632349 270 7542ft 72kts
05-Nov-18 19:12 34.145307 -117.655316 270 6830ft 71kts
05-Nov-18 19:13 34.146212 -117.678103 275 6496ft 69kts
05-Nov-18 19:14 34.146283 -117.702747 265 6099ft 74kts
05-Nov-18 19:15 34.143811 -117.727702 266 5618ft 75kts
05-Nov-18 19:16 34.142875 -117.751844 270 5197ft 69kts
05-Nov-18 19:17 34.143522 -117.775529 268 4781ft 71kts
05-Nov-18 19:18 34.143396 -117.799448 268 4546ft 69kts
05-Nov-18 19:19 34.141449 -117.823408 268 4474ft 71kts
05-Nov-18 19:20 34.140907 -117.847254 272 4508ft 70kts
05-Nov-18 19:21 34.142045 -117.870857 272 4560ft 71kts
05-Nov-18 19:21 34.144243 -117.891235 276 4499ft 74kts
05-Nov-18 19:23 34.149468 -117.919812 281 4507ft 74kts
05-Nov-18 19:24 34.154509 -117.943978 280 4380ft 74kts
05-Nov-18 19:25 34.157730 -117.969049 274 4039ft 73kts
05-Nov-18 19:25 34.159763 -117.989828 274 3777ft 74kts
05-Nov-18 19:27 34.163168 -118.018735 277 3574ft 73kts
05-Nov-18 19:28 34.165475 -118.039624 275 3411ft 76kts
05-Nov-18 19:29 34.168607 -118.067143 278 3428ft 70kts
05-Nov-18 19:30 34.172288 -118.090463 278 3517ft 71kts
05-Nov-18 19:31 34.175872 -118.110059 274 3650ft 71kts
05-Nov-18 19:32 34.178393 -118.137956 273 3831ft 71kts
05-Nov-18 19:33 34.178956 -118.158110 266 3948ft 71kts
05-Nov-18 19:34 34.180127 -118.182956 272 3878ft 70kts
05-Nov-18 19:35 34.179684 -118.206869 264 3654ft 73kts
05-Nov-18 19:36 34.182957 -118.231069 280 3339ft 73kts
05-Nov-18 19:37 34.185225 -118.255423 271 3037ft 74kts
05-Nov-18 19:38 34.187505 -118.280948 273 2639ft 74kts
05-Nov-18 19:39 34.189325 -118.304725 273 2184ft 71kts
05-Nov-18 19:40 34.190241 -118.327919 269 1852ft 67kts
05-Nov-18 19:41 34.189958 -118.350078 265 1703ft 65kts
05-Nov-18 19:42 34.189567 -118.371521 267 1519ft 61kts
05-Nov-18 19:43 34.192636 -118.389593 348 1337ft 64kts
05-Nov-18 19:44 34.197945 -118.372340 96 880ft 61kts
05-Nov-18 19:45 34.198034 -118.360427 37 737ft 8kts
05-Nov-18 19:46 34.198916 -118.360796 278 737ft 9kts
05-Nov-18 19:47 34.199588 -118.364508 314 737ft 8kts

Navigation Log

Ident Type
Flight plan parsing failed, navigation log unavailable